sensor_id;sensor_type;location;lat;lon;timestamp;P1;durP1;ratioP1;P2;durP2;ratioP2
64282;SDS011;50497;50.720;-2.084;2022-10-17T00:00:33;14.05;;;2.50;;
64282;SDS011;50497;50.720;-2.084;2022-10-17T00:02:59;15.32;;;2.78;;
64282;SDS011;50497;50.720;-2.084;2022-10-17T00:05:24;15.25;;;2.47;;
64282;SDS011;50497;50.720;-2.084;2022-10-17T00:07:50;13.77;;;2.30;;
64282;SDS011;50497;50.720;-2.084;2022-10-17T00:10:16;13.43;;;2.67;;
64282;SDS011;50497;50.720;-2.084;2022-10-17T00:12:42;14.40;;;2.70;;
64282;SDS011;50497;50.720;-2.084;2022-10-17T00:15:07;12.05;;;2.50;;
64282;SDS011;50497;50.720;-2.084;2022-10-17T00:17:33;12.32;;;2.42;;
64282;SDS011;50497;50.720;-2.084;2022-10-17T00:19:59;14.45;;;2.58;;
64282;SDS011;50497;50.720;-2.084;2022-10-17T00:22:25;11.43;;;2.30;;
64282;SDS011;50497;50.720;-2.084;2022-10-17T00:24:51;14.73;;;2.53;;
64282;SDS011;50497;50.720;-2.084;2022-10-17T00:27:17;18.33;;;2.55;;
64282;SDS011;50497;50.720;-2.084;2022-10-17T00:29:42;12.55;;;2.28;;
64282;SDS011;50497;50.720;-2.084;2022-10-17T00:32:12;16.70;;;2.63;;
64282;SDS011;50497;50.720;-2.084;2022-10-17T00:34:38;11.88;;;2.25;;
64282;SDS011;50497;50.720;-2.084;2022-10-17T00:37:03;13.55;;;2.60;;
64282;SDS011;50497;50.720;-2.084;2022-10-17T00:39:28;14.13;;;2.50;;
64282;SDS011;50497;50.720;-2.084;2022-10-17T00:41:54;18.40;;;2.67;;
64282;SDS011;50497;50.720;-2.084;2022-10-17T00:46:54;16.73;;;2.53;;
64282;SDS011;50497;50.720;-2.084;2022-10-17T00:49:24;14.38;;;2.75;;
64282;SDS011;50497;50.720;-2.084;2022-10-17T00:51:52;12.07;;;2.22;;
64282;SDS011;50497;50.720;-2.084;2022-10-17T00:54:31;15.02;;;2.33;;
64282;SDS011;50497;50.720;-2.084;2022-10-17T00:57:00;14.30;;;2.20;;
64282;SDS011;50497;50.720;-2.084;2022-10-17T00:59:25;14.93;;;2.30;;
64282;SDS011;50497;50.720;-2.084;2022-10-17T01:04:29;12.25;;;2.30;;
64282;SDS011;50497;50.720;-2.084;2022-10-17T01:06:54;14.10;;;2.55;;
64282;SDS011;50497;50.720;-2.084;2022-10-17T01:09:20;13.40;;;2.58;;
64282;SDS011;50497;50.720;-2.084;2022-10-17T01:11:50;13.57;;;2.90;;
64282;SDS011;50497;50.720;-2.084;2022-10-17T01:31:54;13.95;;;2.38;;
64282;SDS011;50497;50.720;-2.084;2022-10-17T01:34:32;12.38;;;2.15;;
64282;SDS011;50497;50.720;-2.084;2022-10-17T01:37:14;14.75;;;2.10;;
64282;SDS011;50497;50.720;-2.084;2022-10-17T01:47:41;12.70;;;2.25;;
64282;SDS011;50497;50.720;-2.084;2022-10-17T01:52:42;14.25;;;2.40;;
64282;SDS011;50497;50.720;-2.084;2022-10-17T01:55:16;13.85;;;2.50;;
64282;SDS011;50497;50.720;-2.084;2022-10-17T01:57:47;14.65;;;2.25;;
64282;SDS011;50497;50.720;-2.084;2022-10-17T02:00:18;10.10;;;2.03;;
64282;SDS011;50497;50.720;-2.084;2022-10-17T02:02:49;18.30;;;2.53;;
64282;SDS011;50497;50.720;-2.084;2022-10-17T02:05:19;12.45;;;2.60;;
64282;SDS011;50497;50.720;-2.084;2022-10-17T02:07:48;10.38;;;2.05;;
64282;SDS011;50497;50.720;-2.084;2022-10-17T02:10:20;14.65;;;2.67;;
64282;SDS011;50497;50.720;-2.084;2022-10-17T02:13:12;18.50;;;2.90;;
64282;SDS011;50497;50.720;-2.084;2022-10-17T02:18:40;15.07;;;2.97;;
64282;SDS011;50497;50.720;-2.084;2022-10-17T02:21:13;16.88;;;2.80;;
64282;SDS011;50497;50.720;-2.084;2022-10-17T02:26:24;20.17;;;2.92;;
64282;SDS011;50497;50.720;-2.084;2022-10-17T02:29:04;19.25;;;2.80;;
64282;SDS011;50497;50.720;-2.084;2022-10-17T02:31:43;19.20;;;3.08;;
64282;SDS011;50497;50.720;-2.084;2022-10-17T02:34:17;14.65;;;2.90;;
64282;SDS011;50497;50.720;-2.084;2022-10-17T02:36:50;18.25;;;2.85;;
64282;SDS011;50497;50.720;-2.084;2022-10-17T02:39:19;18.25;;;2.95;;
64282;SDS011;50497;50.720;-2.084;2022-10-17T02:41:48;16.15;;;2.70;;
64282;SDS011;50497;50.720;-2.084;2022-10-17T02:44:14;19.25;;;2.75;;
64282;SDS011;50497;50.720;-2.084;2022-10-17T02:46:41;18.30;;;3.30;;
64282;SDS011;50497;50.720;-2.084;2022-10-17T02:49:16;20.55;;;3.55;;
64282;SDS011;50497;50.720;-2.084;2022-10-17T02:52:00;16.05;;;3.20;;
64282;SDS011;50497;50.720;-2.084;2022-10-17T02:59:42;14.65;;;2.88;;
64282;SDS011;50497;50.720;-2.084;2022-10-17T03:02:09;15.00;;;2.90;;
64282;SDS011;50497;50.720;-2.084;2022-10-17T03:04:35;23.20;;;3.20;;
64282;SDS011;50497;50.720;-2.084;2022-10-17T03:07:00;15.73;;;2.83;;
64282;SDS011;50497;50.720;-2.084;2022-10-17T03:09:26;22.17;;;3.08;;
64282;SDS011;50497;50.720;-2.084;2022-10-17T03:11:51;27.10;;;3.65;;
64282;SDS011;50497;50.720;-2.084;2022-10-17T03:14:16;20.23;;;3.38;;
64282;SDS011;50497;50.720;-2.084;2022-10-17T03:16:42;20.27;;;3.35;;
64282;SDS011;50497;50.720;-2.084;2022-10-17T03:19:07;16.90;;;3.03;;
64282;SDS011;50497;50.720;-2.084;2022-10-17T03:21:33;14.50;;;2.65;;
64282;SDS011;50497;50.720;-2.084;2022-10-17T03:24:00;16.80;;;3.10;;
64282;SDS011;50497;50.720;-2.084;2022-10-17T03:26:26;18.27;;;3.20;;
64282;SDS011;50497;50.720;-2.084;2022-10-17T03:28:53;14.48;;;2.40;;
64282;SDS011;50497;50.720;-2.084;2022-10-17T03:31:18;17.67;;;2.70;;
64282;SDS011;50497;50.720;-2.084;2022-10-17T03:33:44;13.70;;;2.20;;
64282;SDS011;50497;50.720;-2.084;2022-10-17T03:36:11;18.40;;;2.78;;
64282;SDS011;50497;50.720;-2.084;2022-10-17T03:38:39;19.73;;;2.63;;
64282;SDS011;50497;50.720;-2.084;2022-10-17T03:41:05;16.58;;;2.53;;
64282;SDS011;50497;50.720;-2.084;2022-10-17T03:43:31;13.50;;;2.58;;
64282;SDS011;50497;50.720;-2.084;2022-10-17T03:45:57;13.55;;;2.30;;
64282;SDS011;50497;50.720;-2.084;2022-10-17T03:48:24;12.82;;;2.22;;
64282;SDS011;50497;50.720;-2.084;2022-10-17T03:53:16;11.90;;;2.30;;
64282;SDS011;50497;50.720;-2.084;2022-10-17T03:55:41;18.25;;;2.40;;
64282;SDS011;50497;50.720;-2.084;2022-10-17T03:58:07;15.32;;;2.28;;
64282;SDS011;50497;50.720;-2.084;2022-10-17T04:00:34;16.80;;;2.83;;
64282;SDS011;50497;50.720;-2.084;2022-10-17T04:03:00;21.05;;;2.63;;
64282;SDS011;50497;50.720;-2.084;2022-10-17T04:05:26;18.80;;;2.78;;
64282;SDS011;50497;50.720;-2.084;2022-10-17T04:07:51;16.13;;;2.53;;
64282;SDS011;50497;50.720;-2.084;2022-10-17T04:10:17;20.48;;;2.70;;
64282;SDS011;50497;50.720;-2.084;2022-10-17T04:12:42;20.60;;;3.17;;
64282;SDS011;50497;50.720;-2.084;2022-10-17T04:15:08;17.23;;;2.55;;
64282;SDS011;50497;50.720;-2.084;2022-10-17T04:17:33;16.52;;;2.60;;
64282;SDS011;50497;50.720;-2.084;2022-10-17T04:19:59;22.02;;;2.90;;
64282;SDS011;50497;50.720;-2.084;2022-10-17T04:22:24;15.30;;;2.55;;
64282;SDS011;50497;50.720;-2.084;2022-10-17T04:24:49;22.10;;;3.03;;
64282;SDS011;50497;50.720;-2.084;2022-10-17T04:27:15;17.77;;;2.63;;
64282;SDS011;50497;50.720;-2.084;2022-10-17T04:29:40;22.13;;;3.05;;
64282;SDS011;50497;50.720;-2.084;2022-10-17T04:32:06;19.05;;;2.70;;
64282;SDS011;50497;50.720;-2.084;2022-10-17T04:34:31;20.77;;;2.88;;
64282;SDS011;50497;50.720;-2.084;2022-10-17T04:36:56;20.15;;;2.70;;
64282;SDS011;50497;50.720;-2.084;2022-10-17T04:39:22;14.98;;;2.80;;
64282;SDS011;50497;50.720;-2.084;2022-10-17T04:41:47;15.27;;;2.45;;
64282;SDS011;50497;50.720;-2.084;2022-10-17T04:44:13;17.42;;;2.60;;
64282;SDS011;50497;50.720;-2.084;2022-10-17T04:49:04;15.80;;;2.40;;
64282;SDS011;50497;50.720;-2.084;2022-10-17T04:51:30;13.48;;;2.40;;
64282;SDS011;50497;50.720;-2.084;2022-10-17T04:53:55;20.98;;;3.00;;
64282;SDS011;50497;50.720;-2.084;2022-10-17T04:56:21;19.45;;;2.60;;
64282;SDS011;50497;50.720;-2.084;2022-10-17T04:58:48;17.08;;;2.58;;
64282;SDS011;50497;50.720;-2.084;2022-10-17T05:01:15;17.35;;;3.30;;
64282;SDS011;50497;50.720;-2.084;2022-10-17T05:03:42;20.27;;;3.05;;
64282;SDS011;50497;50.720;-2.084;2022-10-17T05:06:09;15.15;;;2.67;;
64282;SDS011;50497;50.720;-2.084;2022-10-17T05:08:36;14.70;;;2.70;;
64282;SDS011;50497;50.720;-2.084;2022-10-17T05:11:02;18.17;;;2.75;;
64282;SDS011;50497;50.720;-2.084;2022-10-17T05:13:28;16.20;;;2.58;;
64282;SDS011;50497;50.720;-2.084;2022-10-17T05:15:57;17.75;;;2.55;;
64282;SDS011;50497;50.720;-2.084;2022-10-17T05:18:23;15.85;;;2.72;;
64282;SDS011;50497;50.720;-2.084;2022-10-17T05:20:49;20.02;;;2.63;;
64282;SDS011;50497;50.720;-2.084;2022-10-17T05:23:14;18.25;;;3.03;;
64282;SDS011;50497;50.720;-2.084;2022-10-17T05:25:40;13.50;;;2.58;;
64282;SDS011;50497;50.720;-2.084;2022-10-17T05:28:05;17.40;;;2.90;;
64282;SDS011;50497;50.720;-2.084;2022-10-17T05:30:30;17.15;;;3.05;;
64282;SDS011;50497;50.720;-2.084;2022-10-17T05:32:56;17.58;;;2.60;;
64282;SDS011;50497;50.720;-2.084;2022-10-17T05:35:21;17.75;;;2.67;;
64282;SDS011;50497;50.720;-2.084;2022-10-17T05:37:47;14.30;;;2.42;;
64282;SDS011;50497;50.720;-2.084;2022-10-17T05:40:12;17.35;;;3.00;;
64282;SDS011;50497;50.720;-2.084;2022-10-17T05:42:37;18.35;;;2.67;;
64282;SDS011;50497;50.720;-2.084;2022-10-17T05:45:03;15.60;;;2.50;;
64282;SDS011;50497;50.720;-2.084;2022-10-17T05:47:29;14.07;;;2.72;;
64282;SDS011;50497;50.720;-2.084;2022-10-17T05:49:54;15.93;;;2.47;;
64282;SDS011;50497;50.720;-2.084;2022-10-17T05:52:20;18.67;;;2.67;;
64282;SDS011;50497;50.720;-2.084;2022-10-17T05:54:45;21.35;;;2.80;;
64282;SDS011;50497;50.720;-2.084;2022-10-17T05:57:11;17.10;;;2.30;;
64282;SDS011;50497;50.720;-2.084;2022-10-17T05:59:36;15.82;;;2.22;;
64282;SDS011;50497;50.720;-2.084;2022-10-17T06:02:02;15.93;;;3.40;;
64282;SDS011;50497;50.720;-2.084;2022-10-17T06:04:27;15.23;;;2.53;;
64282;SDS011;50497;50.720;-2.084;2022-10-17T06:06:52;18.70;;;2.92;;
64282;SDS011;50497;50.720;-2.084;2022-10-17T06:09:20;16.13;;;1.95;;
64282;SDS011;50497;50.720;-2.084;2022-10-17T06:11:49;19.58;;;3.03;;
64282;SDS011;50497;50.720;-2.084;2022-10-17T06:14:14;22.65;;;3.10;;
64282;SDS011;50497;50.720;-2.084;2022-10-17T06:16:39;19.05;;;2.90;;
64282;SDS011;50497;50.720;-2.084;2022-10-17T06:19:05;16.83;;;2.40;;
64282;SDS011;50497;50.720;-2.084;2022-10-17T06:21:30;14.90;;;2.70;;
64282;SDS011;50497;50.720;-2.084;2022-10-17T06:24:00;15.63;;;2.90;;
64282;SDS011;50497;50.720;-2.084;2022-10-17T06:26:26;14.07;;;2.40;;
64282;SDS011;50497;50.720;-2.084;2022-10-17T06:28:52;17.35;;;2.50;;
64282;SDS011;50497;50.720;-2.084;2022-10-17T06:31:19;17.80;;;2.95;;
64282;SDS011;50497;50.720;-2.084;2022-10-17T06:33:45;22.73;;;2.90;;
64282;SDS011;50497;50.720;-2.084;2022-10-17T06:36:12;16.02;;;2.60;;
64282;SDS011;50497;50.720;-2.084;2022-10-17T06:38:38;16.50;;;2.53;;
64282;SDS011;50497;50.720;-2.084;2022-10-17T06:41:05;17.77;;;2.80;;
64282;SDS011;50497;50.720;-2.084;2022-10-17T06:43:37;21.95;;;3.03;;
64282;SDS011;50497;50.720;-2.084;2022-10-17T06:46:13;25.13;;;3.08;;
64282;SDS011;50497;50.720;-2.084;2022-10-17T06:48:40;20.52;;;2.90;;
64282;SDS011;50497;50.720;-2.084;2022-10-17T06:51:06;18.70;;;3.13;;
64282;SDS011;50497;50.720;-2.084;2022-10-17T06:53:36;18.85;;;2.67;;
64282;SDS011;50497;50.720;-2.084;2022-10-17T06:56:06;19.17;;;2.70;;
64282;SDS011;50497;50.720;-2.084;2022-10-17T06:58:35;16.05;;;2.92;;
64282;SDS011;50497;50.720;-2.084;2022-10-17T07:01:05;26.38;;;7.03;;
64282;SDS011;50497;50.720;-2.084;2022-10-17T07:03:36;22.67;;;3.80;;
64282;SDS011;50497;50.720;-2.084;2022-10-17T07:06:02;18.80;;;2.58;;
64282;SDS011;50497;50.720;-2.084;2022-10-17T07:10:54;18.67;;;2.72;;
64282;SDS011;50497;50.720;-2.084;2022-10-17T07:13:20;19.05;;;2.97;;
64282;SDS011;50497;50.720;-2.084;2022-10-17T07:15:46;18.42;;;2.92;;
64282;SDS011;50497;50.720;-2.084;2022-10-17T07:18:12;20.08;;;2.63;;
64282;SDS011;50497;50.720;-2.084;2022-10-17T07:20:37;17.83;;;2.67;;
64282;SDS011;50497;50.720;-2.084;2022-10-17T07:23:06;18.52;;;2.22;;
64282;SDS011;50497;50.720;-2.084;2022-10-17T07:25:33;20.42;;;3.13;;
64282;SDS011;50497;50.720;-2.084;2022-10-17T07:28:01;16.45;;;2.85;;
64282;SDS011;50497;50.720;-2.084;2022-10-17T07:30:26;17.48;;;2.60;;
64282;SDS011;50497;50.720;-2.084;2022-10-17T07:32:52;16.83;;;2.58;;
64282;SDS011;50497;50.720;-2.084;2022-10-17T07:35:18;22.45;;;2.40;;
64282;SDS011;50497;50.720;-2.084;2022-10-17T07:37:45;17.42;;;2.97;;
64282;SDS011;50497;50.720;-2.084;2022-10-17T07:40:11;18.27;;;2.58;;
64282;SDS011;50497;50.720;-2.084;2022-10-17T07:42:40;12.45;;;2.30;;
64282;SDS011;50497;50.720;-2.084;2022-10-17T07:45:06;17.95;;;2.72;;
64282;SDS011;50497;50.720;-2.084;2022-10-17T07:47:32;18.98;;;2.80;;
64282;SDS011;50497;50.720;-2.084;2022-10-17T07:50:01;19.63;;;2.70;;
64282;SDS011;50497;50.720;-2.084;2022-10-17T07:52:30;15.07;;;2.58;;
64282;SDS011;50497;50.720;-2.084;2022-10-17T07:54:55;16.83;;;2.30;;
64282;SDS011;50497;50.720;-2.084;2022-10-17T07:57:21;13.77;;;2.45;;
64282;SDS011;50497;50.720;-2.084;2022-10-17T07:59:47;24.67;;;3.03;;
64282;SDS011;50497;50.720;-2.084;2022-10-17T08:02:22;18.52;;;3.15;;
64282;SDS011;50497;50.720;-2.084;2022-10-17T08:04:49;15.50;;;3.55;;
64282;SDS011;50497;50.720;-2.084;2022-10-17T08:07:16;19.88;;;3.00;;
64282;SDS011;50497;50.720;-2.084;2022-10-17T08:09:45;16.65;;;2.58;;
64282;SDS011;50497;50.720;-2.084;2022-10-17T08:14:39;12.73;;;2.25;;
64282;SDS011;50497;50.720;-2.084;2022-10-17T08:17:05;21.67;;;3.53;;
64282;SDS011;50497;50.720;-2.084;2022-10-17T08:19:36;16.02;;;2.60;;
64282;SDS011;50497;50.720;-2.084;2022-10-17T08:22:03;14.45;;;2.33;;
64282;SDS011;50497;50.720;-2.084;2022-10-17T08:24:29;16.30;;;2.15;;
64282;SDS011;50497;50.720;-2.084;2022-10-17T08:26:54;11.93;;;2.28;;
64282;SDS011;50497;50.720;-2.084;2022-10-17T08:29:22;17.27;;;2.78;;
64282;SDS011;50497;50.720;-2.084;2022-10-17T08:34:14;16.85;;;2.47;;
64282;SDS011;50497;50.720;-2.084;2022-10-17T08:36:40;17.58;;;2.65;;
64282;SDS011;50497;50.720;-2.084;2022-10-17T08:39:06;15.93;;;2.70;;
64282;SDS011;50497;50.720;-2.084;2022-10-17T08:44:29;13.68;;;2.30;;
64282;SDS011;50497;50.720;-2.084;2022-10-17T08:46:56;12.45;;;2.75;;
64282;SDS011;50497;50.720;-2.084;2022-10-17T08:52:14;13.77;;;2.40;;
64282;SDS011;50497;50.720;-2.084;2022-10-17T08:54:44;20.05;;;2.83;;
64282;SDS011;50497;50.720;-2.084;2022-10-17T08:57:13;14.95;;;2.47;;
64282;SDS011;50497;50.720;-2.084;2022-10-17T08:59:40;15.45;;;1.95;;
64282;SDS011;50497;50.720;-2.084;2022-10-17T09:03:12;13.52;;;2.33;;
64282;SDS011;50497;50.720;-2.084;2022-10-17T09:05:34;16.23;;;2.45;;
64282;SDS011;50497;50.720;-2.084;2022-10-17T09:20:16;19.23;;;3.35;;
64282;SDS011;50497;50.720;-2.084;2022-10-17T09:25:38;14.23;;;2.42;;
64282;SDS011;50497;50.720;-2.084;2022-10-17T09:28:15;16.77;;;2.42;;
64282;SDS011;50497;50.720;-2.084;2022-10-17T09:30:46;19.50;;;2.60;;
64282;SDS011;50497;50.720;-2.084;2022-10-17T09:33:18;15.60;;;2.40;;
64282;SDS011;50497;50.720;-2.084;2022-10-17T09:36:04;17.45;;;2.58;;
64282;SDS011;50497;50.720;-2.084;2022-10-17T09:38:37;15.45;;;2.20;;
64282;SDS011;50497;50.720;-2.084;2022-10-17T09:41:06;13.13;;;2.10;;
64282;SDS011;50497;50.720;-2.084;2022-10-17T09:43:39;11.90;;;2.08;;
64282;SDS011;50497;50.720;-2.084;2022-10-17T09:48:48;11.43;;;1.92;;
64282;SDS011;50497;50.720;-2.084;2022-10-17T09:51:18;11.43;;;1.95;;
64282;SDS011;50497;50.720;-2.084;2022-10-17T09:53:45;8.85;;;1.92;;
64282;SDS011;50497;50.720;-2.084;2022-10-17T09:56:17;8.98;;;1.85;;
64282;SDS011;50497;50.720;-2.084;2022-10-17T09:58:47;12.80;;;1.80;;
64282;SDS011;50497;50.720;-2.084;2022-10-17T10:01:24;11.32;;;2.05;;
64282;SDS011;50497;50.720;-2.084;2022-10-17T10:06:34;10.63;;;1.70;;
64282;SDS011;50497;50.720;-2.084;2022-10-17T10:11:49;10.52;;;1.58;;
64282;SDS011;50497;50.720;-2.084;2022-10-17T10:14:27;11.75;;;1.80;;
64282;SDS011;50497;50.720;-2.084;2022-10-17T10:17:00;11.35;;;1.90;;
64282;SDS011;50497;50.720;-2.084;2022-10-17T10:19:49;9.35;;;1.80;;
64282;SDS011;50497;50.720;-2.084;2022-10-17T10:22:16;13.52;;;3.20;;
64282;SDS011;50497;50.720;-2.084;2022-10-17T10:24:42;7.10;;;1.45;;
64282;SDS011;50497;50.720;-2.084;2022-10-17T10:27:12;10.20;;;1.90;;
64282;SDS011;50497;50.720;-2.084;2022-10-17T10:29:41;10.80;;;1.80;;
64282;SDS011;50497;50.720;-2.084;2022-10-17T10:32:15;8.05;;;1.65;;
64282;SDS011;50497;50.720;-2.084;2022-10-17T10:34:49;12.50;;;2.05;;
64282;SDS011;50497;50.720;-2.084;2022-10-17T10:37:29;7.25;;;1.50;;
64282;SDS011;50497;50.720;-2.084;2022-10-17T10:40:03;9.48;;;1.75;;
64282;SDS011;50497;50.720;-2.084;2022-10-17T10:45:11;13.77;;;1.85;;
64282;SDS011;50497;50.720;-2.084;2022-10-17T10:47:54;10.98;;;1.80;;
64282;SDS011;50497;50.720;-2.084;2022-10-17T10:52:51;8.15;;;1.55;;
64282;SDS011;50497;50.720;-2.084;2022-10-17T10:55:28;10.57;;;1.90;;
64282;SDS011;50497;50.720;-2.084;2022-10-17T10:58:00;8.52;;;1.65;;
64282;SDS011;50497;50.720;-2.084;2022-10-17T11:00:45;11.73;;;2.13;;
64282;SDS011;50497;50.720;-2.084;2022-10-17T11:03:15;10.23;;;1.73;;
64282;SDS011;50497;50.720;-2.084;2022-10-17T11:05:48;10.27;;;1.90;;
64282;SDS011;50497;50.720;-2.084;2022-10-17T11:08:37;9.30;;;1.80;;
64282;SDS011;50497;50.720;-2.084;2022-10-17T11:11:19;10.93;;;2.00;;
64282;SDS011;50497;50.720;-2.084;2022-10-17T11:13:57;8.57;;;1.77;;
64282;SDS011;50497;50.720;-2.084;2022-10-17T11:16:37;7.43;;;1.25;;
64282;SDS011;50497;50.720;-2.084;2022-10-17T11:24:36;12.43;;;2.08;;
64282;SDS011;50497;50.720;-2.084;2022-10-17T11:27:06;9.82;;;1.90;;
64282;SDS011;50497;50.720;-2.084;2022-10-17T11:29:38;11.23;;;2.10;;
64282;SDS011;50497;50.720;-2.084;2022-10-17T11:32:16;11.15;;;1.88;;
64282;SDS011;50497;50.720;-2.084;2022-10-17T11:34:50;9.60;;;1.92;;
64282;SDS011;50497;50.720;-2.084;2022-10-17T11:37:20;11.75;;;1.60;;
64282;SDS011;50497;50.720;-2.084;2022-10-17T11:39:50;9.60;;;1.80;;
64282;SDS011;50497;50.720;-2.084;2022-10-17T11:42:20;7.95;;;1.52;;
64282;SDS011;50497;50.720;-2.084;2022-10-17T11:44:52;9.35;;;1.80;;
64282;SDS011;50497;50.720;-2.084;2022-10-17T11:52:49;12.90;;;1.77;;
64282;SDS011;50497;50.720;-2.084;2022-10-17T11:55:39;12.25;;;1.98;;
64282;SDS011;50497;50.720;-2.084;2022-10-17T12:01:14;10.00;;;1.92;;
64282;SDS011;50497;50.720;-2.084;2022-10-17T12:04:01;8.55;;;1.65;;
64282;SDS011;50497;50.720;-2.084;2022-10-17T12:06:55;8.20;;;1.50;;
64282;SDS011;50497;50.720;-2.084;2022-10-17T12:09:26;10.13;;;1.70;;
64282;SDS011;50497;50.720;-2.084;2022-10-17T12:12:06;7.97;;;1.80;;
64282;SDS011;50497;50.720;-2.084;2022-10-17T12:16:57;12.80;;;1.80;;
64282;SDS011;50497;50.720;-2.084;2022-10-17T12:22:31;11.20;;;1.83;;
64282;SDS011;50497;50.720;-2.084;2022-10-17T12:24:57;7.30;;;1.42;;
64282;SDS011;50497;50.720;-2.084;2022-10-17T12:27:33;8.00;;;1.70;;
64282;SDS011;50497;50.720;-2.084;2022-10-17T12:30:05;9.35;;;1.52;;
64282;SDS011;50497;50.720;-2.084;2022-10-17T12:32:53;9.10;;;1.75;;
64282;SDS011;50497;50.720;-2.084;2022-10-17T12:35:20;11.50;;;2.03;;
64282;SDS011;50497;50.720;-2.084;2022-10-17T12:43:00;10.68;;;1.70;;
64282;SDS011;50497;50.720;-2.084;2022-10-17T12:45:49;14.98;;;3.65;;
64282;SDS011;50497;50.720;-2.084;2022-10-17T12:51:13;9.15;;;1.58;;
64282;SDS011;50497;50.720;-2.084;2022-10-17T12:56:43;7.57;;;1.60;;
64282;SDS011;50497;50.720;-2.084;2022-10-17T13:01:46;8.30;;;1.92;;
64282;SDS011;50497;50.720;-2.084;2022-10-17T13:04:15;11.38;;;1.83;;
64282;SDS011;50497;50.720;-2.084;2022-10-17T13:06:45;12.55;;;1.70;;
64282;SDS011;50497;50.720;-2.084;2022-10-17T13:11:51;9.27;;;1.60;;
64282;SDS011;50497;50.720;-2.084;2022-10-17T13:14:21;8.93;;;1.73;;
64282;SDS011;50497;50.720;-2.084;2022-10-17T13:19:20;11.38;;;1.90;;
64282;SDS011;50497;50.720;-2.084;2022-10-17T13:22:09;9.85;;;2.13;;
64282;SDS011;50497;50.720;-2.084;2022-10-17T13:24:42;9.68;;;1.50;;
64282;SDS011;50497;50.720;-2.084;2022-10-17T13:27:26;9.55;;;1.63;;
64282;SDS011;50497;50.720;-2.084;2022-10-17T13:29:55;10.18;;;1.75;;
64282;SDS011;50497;50.720;-2.084;2022-10-17T13:32:22;9.80;;;1.60;;
64282;SDS011;50497;50.720;-2.084;2022-10-17T13:35:09;8.13;;;1.70;;
64282;SDS011;50497;50.720;-2.084;2022-10-17T13:37:40;10.57;;;1.50;;
64282;SDS011;50497;50.720;-2.084;2022-10-17T13:40:14;7.80;;;1.58;;
64282;SDS011;50497;50.720;-2.084;2022-10-17T13:42:44;7.45;;;1.50;;
64282;SDS011;50497;50.720;-2.084;2022-10-17T13:45:27;8.60;;;1.70;;
64282;SDS011;50497;50.720;-2.084;2022-10-17T13:48:15;9.10;;;1.65;;
64282;SDS011;50497;50.720;-2.084;2022-10-17T13:50:44;9.50;;;1.90;;
64282;SDS011;50497;50.720;-2.084;2022-10-17T13:53:19;8.50;;;1.75;;
64282;SDS011;50497;50.720;-2.084;2022-10-17T13:58:45;9.07;;;1.70;;
64282;SDS011;50497;50.720;-2.084;2022-10-17T14:01:15;13.85;;;2.38;;
64282;SDS011;50497;50.720;-2.084;2022-10-17T14:03:42;9.10;;;1.80;;
64282;SDS011;50497;50.720;-2.084;2022-10-17T14:06:21;7.63;;;1.70;;
64282;SDS011;50497;50.720;-2.084;2022-10-17T14:13:57;7.95;;;1.50;;
64282;SDS011;50497;50.720;-2.084;2022-10-17T14:16:25;7.75;;;1.40;;
64282;SDS011;50497;50.720;-2.084;2022-10-17T14:18:58;10.32;;;1.73;;
64282;SDS011;50497;50.720;-2.084;2022-10-17T14:24:10;11.05;;;1.88;;
64282;SDS011;50497;50.720;-2.084;2022-10-17T14:26:55;9.60;;;1.90;;
64282;SDS011;50497;50.720;-2.084;2022-10-17T14:32:06;9.25;;;1.77;;
64282;SDS011;50497;50.720;-2.084;2022-10-17T14:34:38;9.50;;;1.70;;
64282;SDS011;50497;50.720;-2.084;2022-10-17T14:37:08;9.45;;;1.85;;
64282;SDS011;50497;50.720;-2.084;2022-10-17T14:39:35;12.15;;;1.73;;
64282;SDS011;50497;50.720;-2.084;2022-10-17T14:42:01;9.93;;;1.58;;
64282;SDS011;50497;50.720;-2.084;2022-10-17T14:46:56;8.70;;;1.90;;
64282;SDS011;50497;50.720;-2.084;2022-10-17T14:49:26;11.80;;;1.98;;
64282;SDS011;50497;50.720;-2.084;2022-10-17T14:54:35;10.65;;;1.70;;
64282;SDS011;50497;50.720;-2.084;2022-10-17T14:57:24;7.75;;;1.95;;
64282;SDS011;50497;50.720;-2.084;2022-10-17T14:59:51;8.40;;;1.63;;
64282;SDS011;50497;50.720;-2.084;2022-10-17T15:04:42;11.68;;;1.80;;
64282;SDS011;50497;50.720;-2.084;2022-10-17T15:07:17;7.75;;;1.55;;
64282;SDS011;50497;50.720;-2.084;2022-10-17T15:09:49;6.60;;;1.42;;
64282;SDS011;50497;50.720;-2.084;2022-10-17T15:12:18;11.48;;;1.70;;
64282;SDS011;50497;50.720;-2.084;2022-10-17T15:14:45;7.50;;;1.65;;
64282;SDS011;50497;50.720;-2.084;2022-10-17T15:17:13;9.02;;;1.73;;
64282;SDS011;50497;50.720;-2.084;2022-10-17T15:19:42;9.15;;;1.60;;
64282;SDS011;50497;50.720;-2.084;2022-10-17T15:22:08;12.55;;;2.10;;
64282;SDS011;50497;50.720;-2.084;2022-10-17T15:24:33;11.63;;;1.85;;
64282;SDS011;50497;50.720;-2.084;2022-10-17T15:26:59;9.07;;;1.98;;
64282;SDS011;50497;50.720;-2.084;2022-10-17T15:29:27;9.48;;;1.88;;
64282;SDS011;50497;50.720;-2.084;2022-10-17T15:31:52;11.30;;;2.05;;
64282;SDS011;50497;50.720;-2.084;2022-10-17T15:34:18;9.82;;;1.80;;
64282;SDS011;50497;50.720;-2.084;2022-10-17T15:36:48;8.90;;;1.60;;
64282;SDS011;50497;50.720;-2.084;2022-10-17T15:39:18;9.98;;;1.80;;
64282;SDS011;50497;50.720;-2.084;2022-10-17T15:41:44;9.50;;;1.90;;
64282;SDS011;50497;50.720;-2.084;2022-10-17T15:44:11;11.20;;;3.47;;
64282;SDS011;50497;50.720;-2.084;2022-10-17T15:46:37;14.00;;;2.63;;
64282;SDS011;50497;50.720;-2.084;2022-10-17T15:49:05;16.48;;;2.08;;
64282;SDS011;50497;50.720;-2.084;2022-10-17T15:51:34;10.88;;;1.73;;
64282;SDS011;50497;50.720;-2.084;2022-10-17T15:53:59;11.73;;;1.92;;
64282;SDS011;50497;50.720;-2.084;2022-10-17T15:56:28;10.02;;;1.80;;
64282;SDS011;50497;50.720;-2.084;2022-10-17T15:58:55;11.73;;;1.83;;
64282;SDS011;50497;50.720;-2.084;2022-10-17T16:01:25;12.15;;;1.92;;
64282;SDS011;50497;50.720;-2.084;2022-10-17T16:03:53;11.80;;;2.05;;
64282;SDS011;50497;50.720;-2.084;2022-10-17T16:06:20;10.50;;;2.10;;
64282;SDS011;50497;50.720;-2.084;2022-10-17T16:11:31;12.38;;;2.72;;
64282;SDS011;50497;50.720;-2.084;2022-10-17T16:14:00;13.30;;;2.30;;
64282;SDS011;50497;50.720;-2.084;2022-10-17T16:16:27;13.30;;;3.17;;
64282;SDS011;50497;50.720;-2.084;2022-10-17T16:18:53;10.55;;;2.72;;
64282;SDS011;50497;50.720;-2.084;2022-10-17T16:21:19;9.50;;;2.20;;
64282;SDS011;50497;50.720;-2.084;2022-10-17T16:23:49;13.43;;;2.00;;
64282;SDS011;50497;50.720;-2.084;2022-10-17T16:26:14;11.20;;;2.10;;
64282;SDS011;50497;50.720;-2.084;2022-10-17T16:28:40;13.00;;;2.50;;
64282;SDS011;50497;50.720;-2.084;2022-10-17T16:31:20;9.50;;;2.70;;
64282;SDS011;50497;50.720;-2.084;2022-10-17T16:33:54;10.35;;;2.35;;
64282;SDS011;50497;50.720;-2.084;2022-10-17T16:36:24;10.63;;;2.50;;
64282;SDS011;50497;50.720;-2.084;2022-10-17T16:38:50;13.90;;;2.55;;
64282;SDS011;50497;50.720;-2.084;2022-10-17T16:41:19;13.77;;;3.10;;
64282;SDS011;50497;50.720;-2.084;2022-10-17T16:43:46;12.52;;;3.72;;
64282;SDS011;50497;50.720;-2.084;2022-10-17T16:46:12;11.82;;;3.05;;
64282;SDS011;50497;50.720;-2.084;2022-10-17T16:48:38;15.82;;;4.20;;
64282;SDS011;50497;50.720;-2.084;2022-10-17T16:51:03;15.68;;;3.53;;
64282;SDS011;50497;50.720;-2.084;2022-10-17T16:53:29;12.55;;;3.58;;
64282;SDS011;50497;50.720;-2.084;2022-10-17T16:56:01;12.20;;;3.88;;
64282;SDS011;50497;50.720;-2.084;2022-10-17T16:58:27;12.45;;;3.35;;
64282;SDS011;50497;50.720;-2.084;2022-10-17T17:00:55;10.52;;;3.13;;
64282;SDS011;50497;50.720;-2.084;2022-10-17T17:03:23;11.57;;;2.80;;
64282;SDS011;50497;50.720;-2.084;2022-10-17T17:05:49;13.90;;;3.50;;
64282;SDS011;50497;50.720;-2.084;2022-10-17T17:08:15;13.50;;;2.72;;